sensor_id;sensor_type;location;lat;lon;timestamp;pressure;altitude;pressure_sealevel;temperature;humidity
80699;BME280;70062;51.658;5.658;2024-02-28T00:00:30;101872.09;;;22.04;34.02
80699;BME280;70062;51.658;5.658;2024-02-28T00:02:55;101872.90;;;22.09;33.98
80699;BME280;70062;51.658;5.658;2024-02-28T00:05:21;101870.23;;;22.07;33.54
80699;BME280;70062;51.658;5.658;2024-02-28T00:07:46;101870.24;;;22.00;33.74
80699;BME280;70062;51.658;5.658;2024-02-28T00:10:13;101865.92;;;21.84;33.82
80699;BME280;70062;51.658;5.658;2024-02-28T00:12:38;101869.79;;;21.58;34.11
80699;BME280;70062;51.658;5.658;2024-02-28T00:15:07;101868.65;;;21.45;34.39
80699;BME280;70062;51.658;5.658;2024-02-28T00:17:40;101872.29;;;21.62;34.51
80699;BME280;70062;51.658;5.658;2024-02-28T00:20:07;101867.79;;;21.81;34.21
80699;BME280;70062;51.658;5.658;2024-02-28T00:22:33;101866.96;;;21.93;34.03
80699;BME280;70062;51.658;5.658;2024-02-28T00:24:59;101868.42;;;21.97;34.02
80699;BME280;70062;51.658;5.658;2024-02-28T00:27:26;101869.77;;;21.93;33.78
80699;BME280;70062;51.658;5.658;2024-02-28T00:29:52;101864.86;;;21.84;33.96
80699;BME280;70062;51.658;5.658;2024-02-28T00:32:17;101862.05;;;21.65;34.02
80699;BME280;70062;51.658;5.658;2024-02-28T00:34:43;101864.17;;;21.40;34.35
80699;BME280;70062;51.658;5.658;2024-02-28T00:37:08;101860.18;;;21.41;34.68
80699;BME280;70062;51.658;5.658;2024-02-28T00:39:34;101854.84;;;21.63;34.49
80699;BME280;70062;51.658;5.658;2024-02-28T00:41:59;101856.05;;;21.80;34.19
80699;BME280;70062;51.658;5.658;2024-02-28T00:44:25;101851.35;;;21.90;34.02
80699;BME280;70062;51.658;5.658;2024-02-28T00:46:50;101853.81;;;21.91;33.76
80699;BME280;70062;51.658;5.658;2024-02-28T00:49:16;101851.45;;;21.86;34.06
80699;BME280;70062;51.658;5.658;2024-02-28T00:51:41;101853.71;;;21.76;33.87
80699;BME280;70062;51.658;5.658;2024-02-28T00:54:07;101856.03;;;21.52;34.09
80699;BME280;70062;51.658;5.658;2024-02-28T00:56:33;101854.92;;;21.32;34.25
80699;BME280;70062;51.658;5.658;2024-02-28T00:58:59;101856.24;;;21.21;34.51
80699;BME280;70062;51.658;5.658;2024-02-28T01:01:24;101860.20;;;21.11;34.65
80699;BME280;70062;51.658;5.658;2024-02-28T01:03:50;101862.73;;;21.00;34.82
80699;BME280;70062;51.658;5.658;2024-02-28T01:06:15;101865.88;;;20.85;35.03
80699;BME280;70062;51.658;5.658;2024-02-28T01:08:41;101865.52;;;20.71;35.21
80699;BME280;70062;51.658;5.658;2024-02-28T01:11:07;101866.52;;;20.54;35.49
80699;BME280;70062;51.658;5.658;2024-02-28T01:13:32;101861.87;;;20.36;35.77
80699;BME280;70062;51.658;5.658;2024-02-28T01:15:58;101860.80;;;20.22;36.17
80699;BME280;70062;51.658;5.658;2024-02-28T01:18:25;101853.97;;;20.48;36.29
80699;BME280;70062;51.658;5.658;2024-02-28T01:20:50;101851.37;;;21.07;36.04
80699;BME280;70062;51.658;5.658;2024-02-28T01:23:19;101847.04;;;21.84;35.09
80699;BME280;70062;51.658;5.658;2024-02-28T01:25:53;101844.63;;;22.65;33.95
80699;BME280;70062;51.658;5.658;2024-02-28T01:28:18;101842.49;;;23.22;33.06
80699;BME280;70062;51.658;5.658;2024-02-28T01:30:44;101837.21;;;23.61;32.25
80699;BME280;70062;51.658;5.658;2024-02-28T01:33:09;101830.27;;;23.82;31.74
80699;BME280;70062;51.658;5.658;2024-02-28T01:35:34;101824.74;;;23.91;31.31
80699;BME280;70062;51.658;5.658;2024-02-28T01:38:00;101836.84;;;23.91;31.08
80699;BME280;70062;51.658;5.658;2024-02-28T01:40:25;101840.97;;;23.83;31.05
80699;BME280;70062;51.658;5.658;2024-02-28T01:42:51;101852.05;;;23.70;30.96
80699;BME280;70062;51.658;5.658;2024-02-28T01:45:16;101860.23;;;23.52;31.08
80699;BME280;70062;51.658;5.658;2024-02-28T01:47:42;101859.08;;;23.30;31.23
80699;BME280;70062;51.658;5.658;2024-02-28T01:50:09;101863.16;;;23.08;31.36
80699;BME280;70062;51.658;5.658;2024-02-28T01:52:36;101865.94;;;22.83;31.70
80699;BME280;70062;51.658;5.658;2024-02-28T01:55:04;101869.34;;;22.56;32.12
80699;BME280;70062;51.658;5.658;2024-02-28T01:57:32;101866.61;;;22.30;32.29
80699;BME280;70062;51.658;5.658;2024-02-28T01:59:58;101867.54;;;22.04;32.73
80699;BME280;70062;51.658;5.658;2024-02-28T02:02:24;101866.50;;;21.78;33.01
80699;BME280;70062;51.658;5.658;2024-02-28T02:04:49;101865.80;;;21.52;33.37
80699;BME280;70062;51.658;5.658;2024-02-28T02:07:19;101864.54;;;21.25;33.58
80699;BME280;70062;51.658;5.658;2024-02-28T02:09:45;101862.59;;;21.01;34.00
80699;BME280;70062;51.658;5.658;2024-02-28T02:12:11;101866.04;;;20.77;34.40
80699;BME280;70062;51.658;5.658;2024-02-28T02:14:37;101864.37;;;20.52;34.74
80699;BME280;70062;51.658;5.658;2024-02-28T02:17:02;101868.64;;;20.22;35.25
80699;BME280;70062;51.658;5.658;2024-02-28T02:19:28;101867.64;;;20.10;35.75
80699;BME280;70062;51.658;5.658;2024-02-28T02:21:57;101871.42;;;20.35;35.94
80699;BME280;70062;51.658;5.658;2024-02-28T02:24:23;101867.17;;;20.88;35.72
80699;BME280;70062;51.658;5.658;2024-02-28T02:26:48;101861.99;;;21.54;34.82
80699;BME280;70062;51.658;5.658;2024-02-28T02:29:16;101853.14;;;22.11;34.24
80699;BME280;70062;51.658;5.658;2024-02-28T02:31:42;101848.05;;;22.50;33.32
80699;BME280;70062;51.658;5.658;2024-02-28T02:34:07;101847.79;;;22.75;32.81
80699;BME280;70062;51.658;5.658;2024-02-28T02:36:33;101852.37;;;22.88;32.45
80699;BME280;70062;51.658;5.658;2024-02-28T02:38:58;101854.16;;;22.90;32.27
80699;BME280;70062;51.658;5.658;2024-02-28T02:41:23;101857.08;;;22.86;31.96
80699;BME280;70062;51.658;5.658;2024-02-28T02:43:49;101864.75;;;22.75;31.96
80699;BME280;70062;51.658;5.658;2024-02-28T02:46:14;101873.42;;;22.59;32.27
80699;BME280;70062;51.658;5.658;2024-02-28T02:48:40;101876.44;;;22.42;32.09
80699;BME280;70062;51.658;5.658;2024-02-28T02:51:05;101876.64;;;22.23;32.32
80699;BME280;70062;51.658;5.658;2024-02-28T02:53:31;101875.08;;;21.96;32.55
80699;BME280;70062;51.658;5.658;2024-02-28T02:55:56;101872.47;;;21.62;33.03
80699;BME280;70062;51.658;5.658;2024-02-28T02:58:22;101873.92;;;21.47;33.53
80699;BME280;70062;51.658;5.658;2024-02-28T03:00:47;101872.59;;;21.59;33.68
80699;BME280;70062;51.658;5.658;2024-02-28T03:03:13;101871.11;;;21.72;33.38
80699;BME280;70062;51.658;5.658;2024-02-28T03:05:38;101875.45;;;21.79;33.40
80699;BME280;70062;51.658;5.658;2024-02-28T03:08:04;101878.06;;;21.79;33.15
80699;BME280;70062;51.658;5.658;2024-02-28T03:10:29;101874.45;;;21.73;33.35
80699;BME280;70062;51.658;5.658;2024-02-28T03:12:54;101875.13;;;21.63;33.34
80699;BME280;70062;51.658;5.658;2024-02-28T03:15:20;101873.09;;;21.49;33.54
80699;BME280;70062;51.658;5.658;2024-02-28T03:17:46;101873.39;;;21.31;33.65
80699;BME280;70062;51.658;5.658;2024-02-28T03:20:11;101871.52;;;21.03;33.99
80699;BME280;70062;51.658;5.658;2024-02-28T03:22:39;101881.78;;;20.86;34.25
80699;BME280;70062;51.658;5.658;2024-02-28T03:25:06;101875.70;;;21.02;34.58
80699;BME280;70062;51.658;5.658;2024-02-28T03:27:31;101872.75;;;21.50;34.33
80699;BME280;70062;51.658;5.658;2024-02-28T03:29:57;101871.65;;;22.09;33.49
80699;BME280;70062;51.658;5.658;2024-02-28T03:32:22;101874.66;;;22.61;32.81
80699;BME280;70062;51.658;5.658;2024-02-28T03:34:48;101874.40;;;22.97;32.22
80699;BME280;70062;51.658;5.658;2024-02-28T03:37:14;101874.16;;;23.18;31.76
80699;BME280;70062;51.658;5.658;2024-02-28T03:39:39;101875.00;;;23.28;31.41
80699;BME280;70062;51.658;5.658;2024-02-28T03:42:05;101875.34;;;23.28;31.18
80699;BME280;70062;51.658;5.658;2024-02-28T03:44:30;101875.92;;;23.19;31.01
80699;BME280;70062;51.658;5.658;2024-02-28T03:46:56;101872.80;;;23.08;31.06
80699;BME280;70062;51.658;5.658;2024-02-28T03:49:21;101872.00;;;22.89;31.18
80699;BME280;70062;51.658;5.658;2024-02-28T03:51:47;101870.58;;;22.57;31.54
80699;BME280;70062;51.658;5.658;2024-02-28T03:54:12;101869.02;;;22.27;32.06
80699;BME280;70062;51.658;5.658;2024-02-28T03:56:37;101866.55;;;22.26;32.33
80699;BME280;70062;51.658;5.658;2024-02-28T03:59:03;101862.92;;;22.39;32.13
80699;BME280;70062;51.658;5.658;2024-02-28T04:01:29;101862.04;;;22.49;31.93
80699;BME280;70062;51.658;5.658;2024-02-28T04:03:57;101862.41;;;22.51;31.87
80699;BME280;70062;51.658;5.658;2024-02-28T04:06:23;101865.33;;;22.47;31.83
80699;BME280;70062;51.658;5.658;2024-02-28T04:08:48;101866.03;;;22.37;31.79
80699;BME280;70062;51.658;5.658;2024-02-28T04:11:14;101867.13;;;22.20;32.08
80699;BME280;70062;51.658;5.658;2024-02-28T04:13:40;101872.00;;;21.91;32.12
80699;BME280;70062;51.658;5.658;2024-02-28T04:16:07;101867.86;;;21.75;32.74
80699;BME280;70062;51.658;5.658;2024-02-28T04:18:34;101866.35;;;21.89;32.80
80699;BME280;70062;51.658;5.658;2024-02-28T04:20:59;101868.84;;;22.07;32.50
80699;BME280;70062;51.658;5.658;2024-02-28T04:23:25;101868.34;;;22.19;32.36
80699;BME280;70062;51.658;5.658;2024-02-28T04:25:50;101872.94;;;22.21;32.35
80699;BME280;70062;51.658;5.658;2024-02-28T04:28:16;101875.84;;;22.18;32.13
80699;BME280;70062;51.658;5.658;2024-02-28T04:30:42;101883.20;;;22.08;32.21
80699;BME280;70062;51.658;5.658;2024-02-28T04:33:08;101887.29;;;21.86;32.35
80699;BME280;70062;51.658;5.658;2024-02-28T04:35:33;101891.37;;;21.62;32.86
80699;BME280;70062;51.658;5.658;2024-02-28T04:38:04;101891.22;;;21.64;33.06
80699;BME280;70062;51.658;5.658;2024-02-28T04:40:29;101890.08;;;21.86;32.92
80699;BME280;70062;51.658;5.658;2024-02-28T04:42:55;101883.11;;;22.04;32.69
80699;BME280;70062;51.658;5.658;2024-02-28T04:45:21;101884.33;;;22.13;32.33
80699;BME280;70062;51.658;5.658;2024-02-28T04:47:46;101886.09;;;22.14;32.31
80699;BME280;70062;51.658;5.658;2024-02-28T04:50:12;101890.35;;;22.08;32.17
80699;BME280;70062;51.658;5.658;2024-02-28T04:52:38;101886.05;;;21.94;32.38
80699;BME280;70062;51.658;5.658;2024-02-28T04:55:04;101891.11;;;21.68;32.49
80699;BME280;70062;51.658;5.658;2024-02-28T04:57:29;101894.41;;;21.50;32.96
80699;BME280;70062;51.658;5.658;2024-02-28T04:59:55;101897.63;;;21.61;32.95
80699;BME280;70062;51.658;5.658;2024-02-28T05:09:23;101907.58;;;22.04;32.41
80699;BME280;70062;51.658;5.658;2024-02-28T05:11:48;101907.91;;;21.95;32.39
80699;BME280;70062;51.658;5.658;2024-02-28T05:14:14;101911.11;;;21.80;32.52
80699;BME280;70062;51.658;5.658;2024-02-28T05:23:53;101910.89;;;21.87;32.83
80699;BME280;70062;51.658;5.658;2024-02-28T05:26:56;101913.85;;;22.03;32.52
80699;BME280;70062;51.658;5.658;2024-02-28T05:29:21;101920.39;;;22.06;32.35
80699;BME280;70062;51.658;5.658;2024-02-28T05:31:47;101918.58;;;22.03;32.13
80699;BME280;70062;51.658;5.658;2024-02-28T05:34:12;101924.65;;;21.93;32.39
80699;BME280;70062;51.658;5.658;2024-02-28T05:36:40;101922.41;;;21.68;32.55
80699;BME280;70062;51.658;5.658;2024-02-28T05:39:43;101930.54;;;21.47;32.86
80699;BME280;70062;51.658;5.658;2024-02-28T05:42:08;101927.02;;;21.63;32.88
80699;BME280;70062;51.658;5.658;2024-02-28T05:44:34;101926.55;;;21.83;32.75
80699;BME280;70062;51.658;5.658;2024-02-28T05:46:59;101928.10;;;22.08;32.57
80699;BME280;70062;51.658;5.658;2024-02-28T05:49:25;101923.52;;;22.52;32.22
80699;BME280;70062;51.658;5.658;2024-02-28T05:51:51;101924.73;;;23.03;31.61
80699;BME280;70062;51.658;5.658;2024-02-28T05:54:16;101931.07;;;23.41;30.89
80699;BME280;70062;51.658;5.658;2024-02-28T05:56:42;101933.13;;;23.63;30.50
80699;BME280;70062;51.658;5.658;2024-02-28T05:59:07;101928.86;;;23.72;30.22
80699;BME280;70062;51.658;5.658;2024-02-28T06:01:33;101930.77;;;23.71;30.09
80699;BME280;70062;51.658;5.658;2024-02-28T06:03:59;101937.16;;;23.62;30.01
80699;BME280;70062;51.658;5.658;2024-02-28T06:06:25;101934.81;;;23.47;29.95
80699;BME280;70062;51.658;5.658;2024-02-28T06:08:51;101933.35;;;23.29;30.09
80699;BME280;70062;51.658;5.658;2024-02-28T06:11:16;101932.25;;;23.02;30.24
80699;BME280;70062;51.658;5.658;2024-02-28T06:13:42;101932.16;;;22.65;30.65
80699;BME280;70062;51.658;5.658;2024-02-28T06:16:13;101933.44;;;22.50;30.94
80699;BME280;70062;51.658;5.658;2024-02-28T06:18:41;101933.52;;;22.63;31.08
80699;BME280;70062;51.658;5.658;2024-02-28T06:21:06;101935.33;;;22.76;31.04
80699;BME280;70062;51.658;5.658;2024-02-28T06:23:32;101937.36;;;22.82;30.88
80699;BME280;70062;51.658;5.658;2024-02-28T06:25:57;101936.08;;;22.79;30.86
80699;BME280;70062;51.658;5.658;2024-02-28T06:35:06;101943.02;;;22.09;31.53
80699;BME280;70062;51.658;5.658;2024-02-28T06:37:32;101944.57;;;22.17;31.74
80699;BME280;70062;51.658;5.658;2024-02-28T06:39:58;101948.98;;;22.37;31.55
80699;BME280;70062;51.658;5.658;2024-02-28T06:42:23;101954.27;;;22.50;31.25
80699;BME280;70062;51.658;5.658;2024-02-28T06:44:49;101959.40;;;22.53;31.22
80699;BME280;70062;51.658;5.658;2024-02-28T06:47:15;101965.28;;;22.50;31.11
80699;BME280;70062;51.658;5.658;2024-02-28T06:49:40;101969.94;;;22.36;31.22
80699;BME280;70062;51.658;5.658;2024-02-28T06:59:06;101974.02;;;22.21;31.85
80699;BME280;70062;51.658;5.658;2024-02-28T07:01:32;101975.39;;;22.38;31.61
80699;BME280;70062;51.658;5.658;2024-02-28T07:03:58;101977.97;;;22.45;31.49
80699;BME280;70062;51.658;5.658;2024-02-28T07:06:23;101978.47;;;22.44;31.26
80699;BME280;70062;51.658;5.658;2024-02-28T07:08:49;101982.50;;;22.34;31.22
80699;BME280;70062;51.658;5.658;2024-02-28T07:18:38;101995.37;;;22.13;31.89
80699;BME280;70062;51.658;5.658;2024-02-28T07:21:04;101997.64;;;22.30;31.54
80699;BME280;70062;51.658;5.658;2024-02-28T07:23:31;102006.02;;;22.38;31.55
80699;BME280;70062;51.658;5.658;2024-02-28T07:25:57;102008.44;;;22.37;31.35
80699;BME280;70062;51.658;5.658;2024-02-28T07:28:22;102008.45;;;22.28;31.32
80699;BME280;70062;51.658;5.658;2024-02-28T07:30:48;102007.63;;;22.05;31.57
80699;BME280;70062;51.658;5.658;2024-02-28T07:40:18;102008.08;;;22.27;31.97
80699;BME280;70062;51.658;5.658;2024-02-28T07:42:44;102010.52;;;22.36;31.72
80699;BME280;70062;51.658;5.658;2024-02-28T07:45:46;102012.98;;;22.37;31.76
80699;BME280;70062;51.658;5.658;2024-02-28T07:48:12;102012.63;;;22.27;31.59
80699;BME280;70062;51.658;5.658;2024-02-28T07:50:37;102017.98;;;22.07;31.94
80699;BME280;70062;51.658;5.658;2024-02-28T07:53:03;102017.98;;;22.08;32.30
80699;BME280;70062;51.658;5.658;2024-02-28T07:55:29;102022.46;;;22.47;32.13
80699;BME280;70062;51.658;5.658;2024-02-28T07:57:54;102030.02;;;23.05;31.69
80699;BME280;70062;51.658;5.658;2024-02-28T08:00:20;102031.17;;;23.67;31.01
80699;BME280;70062;51.658;5.658;2024-02-28T08:02:46;102036.05;;;24.16;30.25
80699;BME280;70062;51.658;5.658;2024-02-28T08:05:13;102038.39;;;24.48;29.65
80699;BME280;70062;51.658;5.658;2024-02-28T08:07:40;102040.50;;;24.65;29.25
80699;BME280;70062;51.658;5.658;2024-02-28T08:10:05;102044.76;;;24.70;28.96
80699;BME280;70062;51.658;5.658;2024-02-28T08:12:31;102051.21;;;24.65;28.92
80699;BME280;70062;51.658;5.658;2024-02-28T08:14:57;102054.94;;;24.53;28.93
80699;BME280;70062;51.658;5.658;2024-02-28T08:17:23;102055.64;;;24.37;28.91
80699;BME280;70062;51.658;5.658;2024-02-28T08:19:48;102055.84;;;24.15;29.13
80699;BME280;70062;51.658;5.658;2024-02-28T08:22:13;102049.20;;;23.90;29.36
80699;BME280;70062;51.658;5.658;2024-02-28T08:24:39;102050.09;;;23.65;29.48
80699;BME280;70062;51.658;5.658;2024-02-28T08:27:05;102054.38;;;23.38;29.90
80699;BME280;70062;51.658;5.658;2024-02-28T08:29:30;102057.80;;;23.11;30.22
80699;BME280;70062;51.658;5.658;2024-02-28T08:31:57;102065.36;;;22.83;30.57
80699;BME280;70062;51.658;5.658;2024-02-28T08:34:23;102064.43;;;22.54;31.00
80699;BME280;70062;51.658;5.658;2024-02-28T08:36:48;102064.86;;;22.24;31.15
80699;BME280;70062;51.658;5.658;2024-02-28T08:39:14;102066.30;;;21.87;31.87
80699;BME280;70062;51.658;5.658;2024-02-28T08:41:40;102070.45;;;21.68;32.36
80699;BME280;70062;51.658;5.658;2024-02-28T08:44:05;102070.49;;;21.79;32.41
80699;BME280;70062;51.658;5.658;2024-02-28T08:46:31;102074.50;;;21.94;32.49
80699;BME280;70062;51.658;5.658;2024-02-28T08:48:56;102080.70;;;22.04;32.29
80699;BME280;70062;51.658;5.658;2024-02-28T08:51:22;102086.50;;;22.05;32.22
80699;BME280;70062;51.658;5.658;2024-02-28T08:53:47;102087.80;;;22.01;32.25
80699;BME280;70062;51.658;5.658;2024-02-28T08:56:13;102087.77;;;21.93;32.39
80699;BME280;70062;51.658;5.658;2024-02-28T08:58:38;102083.80;;;21.80;32.64
80699;BME280;70062;51.658;5.658;2024-02-28T09:01:04;102080.48;;;21.64;32.53
80699;BME280;70062;51.658;5.658;2024-02-28T09:03:29;102080.05;;;21.46;32.89
80699;BME280;70062;51.658;5.658;2024-02-28T09:05:55;102075.19;;;21.26;33.09
80699;BME280;70062;51.658;5.658;2024-02-28T09:08:20;102076.05;;;20.99;33.58
80699;BME280;70062;51.658;5.658;2024-02-28T09:10:45;102075.90;;;20.75;34.04
80699;BME280;70062;51.658;5.658;2024-02-28T09:13:12;102077.12;;;20.80;34.37
80699;BME280;70062;51.658;5.658;2024-02-28T09:15:38;102072.73;;;21.19;34.22
80699;BME280;70062;51.658;5.658;2024-02-28T09:18:04;102073.14;;;21.80;33.67
80699;BME280;70062;51.658;5.658;2024-02-28T09:20:29;102071.02;;;22.43;33.10
80699;BME280;70062;51.658;5.658;2024-02-28T09:22:55;102071.85;;;22.94;32.24
80699;BME280;70062;51.658;5.658;2024-02-28T09:25:20;102068.74;;;23.26;31.57
80699;BME280;70062;51.658;5.658;2024-02-28T09:27:47;102064.13;;;23.46;31.24
80699;BME280;70062;51.658;5.658;2024-02-28T09:30:12;102059.86;;;23.52;30.83
80699;BME280;70062;51.658;5.658;2024-02-28T09:32:39;102058.79;;;23.51;30.73
80699;BME280;70062;51.658;5.658;2024-02-28T09:35:07;102053.23;;;23.43;30.63
80699;BME280;70062;51.658;5.658;2024-02-28T09:37:33;102060.02;;;23.29;30.78
80699;BME280;70062;51.658;5.658;2024-02-28T09:39:59;102058.63;;;23.09;30.83
80699;BME280;70062;51.658;5.658;2024-02-28T09:42:24;102059.23;;;22.74;31.03
80699;BME280;70062;51.658;5.658;2024-02-28T09:44:50;102056.77;;;22.48;31.58
80699;BME280;70062;51.658;5.658;2024-02-28T09:47:16;102060.88;;;22.52;31.74
80699;BME280;70062;51.658;5.658;2024-02-28T09:49:42;102062.90;;;22.65;31.74
80699;BME280;70062;51.658;5.658;2024-02-28T09:52:08;102059.88;;;22.72;31.51
80699;BME280;70062;51.658;5.658;2024-02-28T09:54:33;102063.04;;;22.72;31.51
80699;BME280;70062;51.658;5.658;2024-02-28T09:56:59;102063.09;;;22.66;31.56
80699;BME280;70062;51.658;5.658;2024-02-28T09:59:28;102063.04;;;22.54;31.60
80699;BME280;70062;51.658;5.658;2024-02-28T10:01:57;102059.42;;;22.31;31.56
80699;BME280;70062;51.658;5.658;2024-02-28T10:04:23;102065.27;;;22.03;32.16
80699;BME280;70062;51.658;5.658;2024-02-28T10:06:50;102065.40;;;22.01;32.38
80699;BME280;70062;51.658;5.658;2024-02-28T10:09:16;102062.80;;;22.18;32.37
80699;BME280;70062;51.658;5.658;2024-02-28T10:11:41;102065.58;;;22.33;32.19
80699;BME280;70062;51.658;5.658;2024-02-28T10:14:08;102065.54;;;22.40;32.05
80699;BME280;70062;51.658;5.658;2024-02-28T10:16:36;102065.19;;;22.40;32.01
80699;BME280;70062;51.658;5.658;2024-02-28T10:19:02;102068.91;;;22.34;32.00
80699;BME280;70062;51.658;5.658;2024-02-28T10:21:30;102074.77;;;22.21;32.25
80699;BME280;70062;51.658;5.658;2024-02-28T10:23:58;102071.21;;;21.95;32.27
80699;BME280;70062;51.658;5.658;2024-02-28T10:26:23;102072.89;;;21.76;32.74
80699;BME280;70062;51.658;5.658;2024-02-28T10:28:49;102067.18;;;21.87;32.81
80699;BME280;70062;51.658;5.658;2024-02-28T10:31:15;102069.41;;;22.08;32.63
80699;BME280;70062;51.658;5.658;2024-02-28T10:33:41;102067.12;;;22.24;32.50
80699;BME280;70062;51.658;5.658;2024-02-28T10:36:07;102066.57;;;22.31;32.32
80699;BME280;70062;51.658;5.658;2024-02-28T10:38:32;102066.55;;;22.29;32.38
80699;BME280;70062;51.658;5.658;2024-02-28T10:41:00;102062.02;;;22.22;32.21
80699;BME280;70062;51.658;5.658;2024-02-28T10:43:28;102059.38;;;22.05;32.46
80699;BME280;70062;51.658;5.658;2024-02-28T10:45:57;102061.06;;;21.79;32.62
80699;BME280;70062;51.658;5.658;2024-02-28T10:48:24;102060.48;;;21.76;32.98
80699;BME280;70062;51.658;5.658;2024-02-28T10:50:50;102060.06;;;21.97;32.89
80699;BME280;70062;51.658;5.658;2024-02-28T10:53:21;102052.81;;;22.16;32.74
80699;BME280;70062;51.658;5.658;2024-02-28T10:55:48;102053.05;;;22.28;32.50
80699;BME280;70062;51.658;5.658;2024-02-28T10:58:14;102051.02;;;22.31;32.45
80699;BME280;70062;51.658;5.658;2024-02-28T11:00:41;102053.73;;;22.28;32.49
80699;BME280;70062;51.658;5.658;2024-02-28T11:03:10;102050.70;;;22.16;32.30
80699;BME280;70062;51.658;5.658;2024-02-28T11:05:41;102054.04;;;21.93;32.62
80699;BME280;70062;51.658;5.658;2024-02-28T11:08:10;102051.86;;;21.74;33.03
80699;BME280;70062;51.658;5.658;2024-02-28T11:10:40;102053.86;;;21.85;33.33
80699;BME280;70062;51.658;5.658;2024-02-28T11:13:07;102052.45;;;22.08;33.00
80699;BME280;70062;51.658;5.658;2024-02-28T11:15:33;102045.78;;;22.23;32.61
80699;BME280;70062;51.658;5.658;2024-02-28T11:18:08;102045.41;;;22.31;32.53
80699;BME280;70062;51.658;5.658;2024-02-28T11:20:35;102042.07;;;22.30;32.48
80699;BME280;70062;51.658;5.658;2024-02-28T11:23:00;102043.86;;;22.23;32.48
80699;BME280;70062;51.658;5.658;2024-02-28T11:25:26;102042.05;;;22.04;32.65
80699;BME280;70062;51.658;5.658;2024-02-28T11:27:52;102040.46;;;21.80;32.86
80699;BME280;70062;51.658;5.658;2024-02-28T11:30:17;102039.89;;;21.78;33.19
80699;BME280;70062;51.658;5.658;2024-02-28T11:32:42;102040.36;;;21.99;33.15
80699;BME280;70062;51.658;5.658;2024-02-28T11:35:09;102040.23;;;22.17;32.87
80699;BME280;70062;51.658;5.658;2024-02-28T11:37:35;102042.40;;;22.29;32.64
80699;BME280;70062;51.658;5.658;2024-02-28T11:40:00;102038.61;;;22.32;32.59
80699;BME280;70062;51.658;5.658;2024-02-28T11:42:30;102033.80;;;22.28;32.51
80699;BME280;70062;51.658;5.658;2024-02-28T11:45:04;102031.98;;;22.15;32.59
80699;BME280;70062;51.658;5.658;2024-02-28T11:47:35;102029.38;;;21.93;32.90
80699;BME280;70062;51.658;5.658;2024-02-28T11:50:04;102023.90;;;21.74;33.13
80699;BME280;70062;51.658;5.658;2024-02-28T11:52:31;102017.52;;;21.86;33.24
80699;BME280;70062;51.658;5.658;2024-02-28T11:54:57;102019.59;;;22.09;33.20
80699;BME280;70062;51.658;5.658;2024-02-28T11:57:22;102013.27;;;22.24;32.94
80699;BME280;70062;51.658;5.658;2024-02-28T11:59:48;102013.75;;;22.31;32.86
80699;BME280;70062;51.658;5.658;2024-02-28T12:02:17;102010.79;;;22.31;32.64
80699;BME280;70062;51.658;5.658;2024-02-28T12:04:44;102004.86;;;22.24;32.63
80699;BME280;70062;51.658;5.658;2024-02-28T12:07:10;102000.31;;;22.07;32.66
80699;BME280;70062;51.658;5.658;2024-02-28T12:09:36;102002.94;;;21.82;33.00
80699;BME280;70062;51.658;5.658;2024-02-28T12:12:02;102000.43;;;21.80;33.22
80699;BME280;70062;51.658;5.658;2024-02-28T12:14:37;101996.86;;;22.01;33.17
80699;BME280;70062;51.658;5.658;2024-02-28T12:17:08;101995.18;;;22.21;32.94
80699;BME280;70062;51.658;5.658;2024-02-28T12:19:34;101991.72;;;22.31;32.74
80699;BME280;70062;51.658;5.658;2024-02-28T12:22:04;101988.78;;;22.34;32.71
80699;BME280;70062;51.658;5.658;2024-02-28T12:24:31;101982.23;;;22.29;32.62
80699;BME280;70062;51.658;5.658;2024-02-28T12:26:57;101983.41;;;22.18;32.55
80699;BME280;70062;51.658;5.658;2024-02-28T12:29:22;101986.61;;;21.96;32.84
80699;BME280;70062;51.658;5.658;2024-02-28T12:31:48;101980.80;;;21.77;33.21
80699;BME280;70062;51.658;5.658;2024-02-28T12:34:13;101979.27;;;21.88;33.63
80699;BME280;70062;51.658;5.658;2024-02-28T12:36:40;101983.10;;;22.11;33.46
80699;BME280;70062;51.658;5.658;2024-02-28T12:39:07;101980.64;;;22.29;33.42
80699;BME280;70062;51.658;5.658;2024-02-28T12:41:32;101980.45;;;22.37;33.52
80699;BME280;70062;51.658;5.658;2024-02-28T12:43:58;101985.38;;;22.38;33.39
80699;BME280;70062;51.658;5.658;2024-02-28T12:46:23;101980.91;;;22.33;33.40
80699;BME280;70062;51.658;5.658;2024-02-28T12:48:48;101980.28;;;22.19;33.40
80699;BME280;70062;51.658;5.658;2024-02-28T12:51:35;101981.69;;;21.95;33.84
80699;BME280;70062;51.658;5.658;2024-02-28T12:54:01;101984.23;;;21.92;34.26
80699;BME280;70062;51.658;5.658;2024-02-28T12:56:26;101980.48;;;22.12;34.30
80699;BME280;70062;51.658;5.658;2024-02-28T12:58:52;101982.45;;;22.32;33.99
80699;BME280;70062;51.658;5.658;2024-02-28T13:01:17;101980.55;;;22.42;33.88
80699;BME280;70062;51.658;5.658;2024-02-28T13:03:42;101975.18;;;22.46;33.60
80699;BME280;70062;51.658;5.658;2024-02-28T13:06:08;101973.89;;;22.42;33.68
80699;BME280;70062;51.658;5.658;2024-02-28T13:08:33;101972.13;;;22.32;33.62
80699;BME280;70062;51.658;5.658;2024-02-28T13:10:58;101974.18;;;22.11;33.99
80699;BME280;70062;51.658;5.658;2024-02-28T13:13:24;101973.42;;;22.08;34.38
80699;BME280;70062;51.658;5.658;2024-02-28T13:15:50;101972.11;;;22.40;34.23
80699;BME280;70062;51.658;5.658;2024-02-28T13:18:15;101967.98;;;22.82;33.61
80699;BME280;70062;51.658;5.658;2024-02-28T13:20:40;101969.73;;;23.14;33.20
80699;BME280;70062;51.658;5.658;2024-02-28T13:23:06;101970.34;;;23.31;32.84
80699;BME280;70062;51.658;5.658;2024-02-28T13:25:31;101965.36;;;23.38;32.45
80699;BME280;70062;51.658;5.658;2024-02-28T13:27:56;101966.05;;;23.36;32.46